sensor_id;sensor_type;location;lat;lon;timestamp;temperature;humidity
32706;DHT22;19094;50.972;3.538;2023-04-16T00:02:06;15.70;56.00
32706;DHT22;19094;50.972;3.538;2023-04-16T00:04:32;15.70;55.90
32706;DHT22;19094;50.972;3.538;2023-04-16T00:06:58;15.80;55.80
32706;DHT22;19094;50.972;3.538;2023-04-16T00:09:23;15.70;56.00
32706;DHT22;19094;50.972;3.538;2023-04-16T00:11:49;15.70;56.00
32706;DHT22;19094;50.972;3.538;2023-04-16T00:14:15;15.70;56.10
32706;DHT22;19094;50.972;3.538;2023-04-16T00:16:40;15.70;56.40
32706;DHT22;19094;50.972;3.538;2023-04-16T00:19:06;15.70;56.00
32706;DHT22;19094;50.972;3.538;2023-04-16T00:21:32;15.70;56.00
32706;DHT22;19094;50.972;3.538;2023-04-16T00:23:57;15.70;56.10
32706;DHT22;19094;50.972;3.538;2023-04-16T00:26:23;15.60;56.30
32706;DHT22;19094;50.972;3.538;2023-04-16T00:28:49;15.70;56.20
32706;DHT22;19094;50.972;3.538;2023-04-16T00:31:14;15.70;56.20
32706;DHT22;19094;50.972;3.538;2023-04-16T00:33:40;15.70;56.10
32706;DHT22;19094;50.972;3.538;2023-04-16T00:36:06;15.70;56.00
32706;DHT22;19094;50.972;3.538;2023-04-16T00:38:31;15.70;56.10
32706;DHT22;19094;50.972;3.538;2023-04-16T00:40:57;15.70;56.20
32706;DHT22;19094;50.972;3.538;2023-04-16T00:43:24;15.70;56.20
32706;DHT22;19094;50.972;3.538;2023-04-16T00:45:52;15.70;56.00
32706;DHT22;19094;50.972;3.538;2023-04-16T00:48:19;15.70;55.90
32706;DHT22;19094;50.972;3.538;2023-04-16T00:50:45;15.70;55.60
32706;DHT22;19094;50.972;3.538;2023-04-16T00:53:12;15.70;55.50
32706;DHT22;19094;50.972;3.538;2023-04-16T00:55:38;15.70;55.40
32706;DHT22;19094;50.972;3.538;2023-04-16T00:58:04;15.70;55.40
32706;DHT22;19094;50.972;3.538;2023-04-16T01:00:30;15.60;55.50
32706;DHT22;19094;50.972;3.538;2023-04-16T01:02:55;15.50;55.70
32706;DHT22;19094;50.972;3.538;2023-04-16T01:05:21;15.50;55.80
32706;DHT22;19094;50.972;3.538;2023-04-16T01:07:47;15.50;55.80
32706;DHT22;19094;50.972;3.538;2023-04-16T01:10:12;15.50;55.90
32706;DHT22;19094;50.972;3.538;2023-04-16T01:12:38;15.40;56.30
32706;DHT22;19094;50.972;3.538;2023-04-16T01:15:04;15.50;56.50
32706;DHT22;19094;50.972;3.538;2023-04-16T01:17:29;15.50;56.50
32706;DHT22;19094;50.972;3.538;2023-04-16T01:19:58;15.40;56.60
32706;DHT22;19094;50.972;3.538;2023-04-16T01:22:24;15.40;56.80
32706;DHT22;19094;50.972;3.538;2023-04-16T01:24:50;15.30;56.90
32706;DHT22;19094;50.972;3.538;2023-04-16T01:27:15;15.30;56.90
32706;DHT22;19094;50.972;3.538;2023-04-16T01:29:41;15.30;56.90
32706;DHT22;19094;50.972;3.538;2023-04-16T01:32:06;15.30;57.00
32706;DHT22;19094;50.972;3.538;2023-04-16T01:34:32;15.30;56.90
32706;DHT22;19094;50.972;3.538;2023-04-16T01:36:58;15.30;56.80
32706;DHT22;19094;50.972;3.538;2023-04-16T01:39:23;15.40;56.80
32706;DHT22;19094;50.972;3.538;2023-04-16T01:41:49;15.40;56.60
32706;DHT22;19094;50.972;3.538;2023-04-16T01:44:15;15.30;56.70
32706;DHT22;19094;50.972;3.538;2023-04-16T01:46:40;15.40;56.80
32706;DHT22;19094;50.972;3.538;2023-04-16T01:49:06;15.30;56.70
32706;DHT22;19094;50.972;3.538;2023-04-16T01:51:32;15.30;56.80
32706;DHT22;19094;50.972;3.538;2023-04-16T01:53:58;15.40;56.80
32706;DHT22;19094;50.972;3.538;2023-04-16T01:56:24;15.30;56.90
32706;DHT22;19094;50.972;3.538;2023-04-16T01:58:49;15.30;56.90
32706;DHT22;19094;50.972;3.538;2023-04-16T02:01:15;15.30;56.70
32706;DHT22;19094;50.972;3.538;2023-04-16T02:03:41;15.30;56.90
32706;DHT22;19094;50.972;3.538;2023-04-16T02:06:07;15.30;56.90
32706;DHT22;19094;50.972;3.538;2023-04-16T02:08:32;15.30;56.90
32706;DHT22;19094;50.972;3.538;2023-04-16T02:10:59;15.30;57.00
32706;DHT22;19094;50.972;3.538;2023-04-16T02:13:25;15.30;57.10
32706;DHT22;19094;50.972;3.538;2023-04-16T02:15:51;15.20;57.00
32706;DHT22;19094;50.972;3.538;2023-04-16T02:18:17;15.20;57.10
32706;DHT22;19094;50.972;3.538;2023-04-16T02:20:45;15.20;56.90
32706;DHT22;19094;50.972;3.538;2023-04-16T02:23:11;15.20;57.10
32706;DHT22;19094;50.972;3.538;2023-04-16T02:25:43;15.20;57.00
32706;DHT22;19094;50.972;3.538;2023-04-16T02:28:14;15.20;57.50
32706;DHT22;19094;50.972;3.538;2023-04-16T02:30:40;15.20;57.00
32706;DHT22;19094;50.972;3.538;2023-04-16T02:33:07;15.20;57.00
32706;DHT22;19094;50.972;3.538;2023-04-16T02:35:34;15.20;57.00
32706;DHT22;19094;50.972;3.538;2023-04-16T02:38:00;15.20;56.90
32706;DHT22;19094;50.972;3.538;2023-04-16T02:40:26;15.20;56.90
32706;DHT22;19094;50.972;3.538;2023-04-16T02:42:53;15.20;56.80
32706;DHT22;19094;50.972;3.538;2023-04-16T02:45:19;15.30;56.90
32706;DHT22;19094;50.972;3.538;2023-04-16T02:47:45;15.30;56.70
32706;DHT22;19094;50.972;3.538;2023-04-16T02:50:11;15.30;56.90
32706;DHT22;19094;50.972;3.538;2023-04-16T02:52:36;15.20;56.70
32706;DHT22;19094;50.972;3.538;2023-04-16T02:55:02;15.20;56.80
32706;DHT22;19094;50.972;3.538;2023-04-16T02:57:28;15.20;56.80
32706;DHT22;19094;50.972;3.538;2023-04-16T02:59:53;15.20;56.70
32706;DHT22;19094;50.972;3.538;2023-04-16T03:02:19;15.20;56.90
32706;DHT22;19094;50.972;3.538;2023-04-16T03:04:45;15.20;56.90
32706;DHT22;19094;50.972;3.538;2023-04-16T03:07:11;15.20;57.00
32706;DHT22;19094;50.972;3.538;2023-04-16T03:09:37;15.20;56.80
32706;DHT22;19094;50.972;3.538;2023-04-16T03:12:03;15.20;56.90
32706;DHT22;19094;50.972;3.538;2023-04-16T03:14:29;15.10;57.00
32706;DHT22;19094;50.972;3.538;2023-04-16T03:16:56;15.10;57.10
32706;DHT22;19094;50.972;3.538;2023-04-16T03:19:21;15.10;57.10
32706;DHT22;19094;50.972;3.538;2023-04-16T03:21:47;15.10;57.00
32706;DHT22;19094;50.972;3.538;2023-04-16T03:24:12;15.10;57.10
32706;DHT22;19094;50.972;3.538;2023-04-16T03:26:38;15.10;57.20
32706;DHT22;19094;50.972;3.538;2023-04-16T03:29:04;15.00;57.20
32706;DHT22;19094;50.972;3.538;2023-04-16T03:31:30;15.10;57.10
32706;DHT22;19094;50.972;3.538;2023-04-16T03:33:55;15.10;57.20
32706;DHT22;19094;50.972;3.538;2023-04-16T03:36:21;15.00;57.10
32706;DHT22;19094;50.972;3.538;2023-04-16T03:38:48;15.00;57.10
32706;DHT22;19094;50.972;3.538;2023-04-16T03:41:13;15.00;57.10
32706;DHT22;19094;50.972;3.538;2023-04-16T03:43:39;14.90;57.40
32706;DHT22;19094;50.972;3.538;2023-04-16T03:46:05;14.90;57.50
32706;DHT22;19094;50.972;3.538;2023-04-16T03:48:30;14.90;57.50
32706;DHT22;19094;50.972;3.538;2023-04-16T03:50:56;14.90;57.40
32706;DHT22;19094;50.972;3.538;2023-04-16T03:53:22;14.90;57.40
32706;DHT22;19094;50.972;3.538;2023-04-16T03:55:51;14.90;57.50
32706;DHT22;19094;50.972;3.538;2023-04-16T03:58:18;14.90;57.30
32706;DHT22;19094;50.972;3.538;2023-04-16T04:00:43;14.90;57.40
32706;DHT22;19094;50.972;3.538;2023-04-16T04:03:09;14.90;57.40
32706;DHT22;19094;50.972;3.538;2023-04-16T04:05:39;14.90;57.30
32706;DHT22;19094;50.972;3.538;2023-04-16T04:08:06;14.90;57.30
32706;DHT22;19094;50.972;3.538;2023-04-16T04:10:33;14.90;57.30
32706;DHT22;19094;50.972;3.538;2023-04-16T04:12:59;14.90;57.30
32706;DHT22;19094;50.972;3.538;2023-04-16T04:15:25;14.90;57.30
32706;DHT22;19094;50.972;3.538;2023-04-16T04:17:51;14.90;57.80
32706;DHT22;19094;50.972;3.538;2023-04-16T04:20:16;15.00;57.30
32706;DHT22;19094;50.972;3.538;2023-04-16T04:22:42;14.90;57.10
32706;DHT22;19094;50.972;3.538;2023-04-16T04:25:09;14.90;57.30
32706;DHT22;19094;50.972;3.538;2023-04-16T04:27:35;15.00;57.20
32706;DHT22;19094;50.972;3.538;2023-04-16T04:30:01;15.00;57.30
32706;DHT22;19094;50.972;3.538;2023-04-16T04:32:28;14.90;57.30
32706;DHT22;19094;50.972;3.538;2023-04-16T04:34:54;15.00;57.10
32706;DHT22;19094;50.972;3.538;2023-04-16T04:37:20;15.00;57.20
32706;DHT22;19094;50.972;3.538;2023-04-16T04:39:45;15.00;57.30
32706;DHT22;19094;50.972;3.538;2023-04-16T04:42:11;15.00;57.40
32706;DHT22;19094;50.972;3.538;2023-04-16T04:44:37;14.90;57.30
32706;DHT22;19094;50.972;3.538;2023-04-16T04:47:02;14.90;57.20
32706;DHT22;19094;50.972;3.538;2023-04-16T04:49:28;14.90;57.30
32706;DHT22;19094;50.972;3.538;2023-04-16T04:51:55;14.90;57.40
32706;DHT22;19094;50.972;3.538;2023-04-16T04:54:20;14.90;57.40
32706;DHT22;19094;50.972;3.538;2023-04-16T04:56:46;14.90;57.50
32706;DHT22;19094;50.972;3.538;2023-04-16T04:59:12;14.80;57.50
32706;DHT22;19094;50.972;3.538;2023-04-16T05:01:38;14.80;57.70
32706;DHT22;19094;50.972;3.538;2023-04-16T05:04:04;14.80;57.80
32706;DHT22;19094;50.972;3.538;2023-04-16T05:06:29;14.70;57.70
32706;DHT22;19094;50.972;3.538;2023-04-16T05:08:55;14.70;57.80
32706;DHT22;19094;50.972;3.538;2023-04-16T05:11:21;14.70;57.90
32706;DHT22;19094;50.972;3.538;2023-04-16T05:13:47;14.70;57.90
32706;DHT22;19094;50.972;3.538;2023-04-16T05:16:12;14.70;58.40
32706;DHT22;19094;50.972;3.538;2023-04-16T05:18:38;14.70;58.00
32706;DHT22;19094;50.972;3.538;2023-04-16T05:21:04;14.70;57.90
32706;DHT22;19094;50.972;3.538;2023-04-16T05:23:30;14.70;57.90
32706;DHT22;19094;50.972;3.538;2023-04-16T05:25:55;14.80;57.90
32706;DHT22;19094;50.972;3.538;2023-04-16T05:28:21;14.80;57.70
32706;DHT22;19094;50.972;3.538;2023-04-16T05:30:47;14.80;58.30
32706;DHT22;19094;50.972;3.538;2023-04-16T05:33:12;14.80;57.80
32706;DHT22;19094;50.972;3.538;2023-04-16T05:35:38;14.80;57.90
32706;DHT22;19094;50.972;3.538;2023-04-16T05:38:03;14.80;57.80
32706;DHT22;19094;50.972;3.538;2023-04-16T05:40:30;14.80;57.80
32706;DHT22;19094;50.972;3.538;2023-04-16T05:42:56;14.80;57.90
32706;DHT22;19094;50.972;3.538;2023-04-16T05:45:22;14.80;57.90
32706;DHT22;19094;50.972;3.538;2023-04-16T05:47:47;14.80;57.90
32706;DHT22;19094;50.972;3.538;2023-04-16T05:50:13;14.80;57.80
32706;DHT22;19094;50.972;3.538;2023-04-16T05:52:39;14.80;57.80
32706;DHT22;19094;50.972;3.538;2023-04-16T05:55:05;14.80;57.80
32706;DHT22;19094;50.972;3.538;2023-04-16T05:57:32;14.80;57.70
32706;DHT22;19094;50.972;3.538;2023-04-16T05:59:58;14.80;57.70
32706;DHT22;19094;50.972;3.538;2023-04-16T06:02:23;14.80;57.90
32706;DHT22;19094;50.972;3.538;2023-04-16T06:04:49;14.80;57.80
32706;DHT22;19094;50.972;3.538;2023-04-16T06:07:15;14.80;57.70
32706;DHT22;19094;50.972;3.538;2023-04-16T06:09:40;14.80;57.70
32706;DHT22;19094;50.972;3.538;2023-04-16T06:12:06;14.80;57.90
32706;DHT22;19094;50.972;3.538;2023-04-16T06:14:32;14.80;57.80
32706;DHT22;19094;50.972;3.538;2023-04-16T06:16:57;14.80;57.80
32706;DHT22;19094;50.972;3.538;2023-04-16T06:19:23;14.70;57.80
32706;DHT22;19094;50.972;3.538;2023-04-16T06:21:49;14.70;57.80
32706;DHT22;19094;50.972;3.538;2023-04-16T06:24:15;14.70;57.80
32706;DHT22;19094;50.972;3.538;2023-04-16T06:26:43;14.70;57.80
32706;DHT22;19094;50.972;3.538;2023-04-16T06:29:08;14.80;57.80
32706;DHT22;19094;50.972;3.538;2023-04-16T06:31:34;14.80;57.80
32706;DHT22;19094;50.972;3.538;2023-04-16T06:34:00;14.80;57.60
32706;DHT22;19094;50.972;3.538;2023-04-16T06:36:25;14.80;57.60
32706;DHT22;19094;50.972;3.538;2023-04-16T06:38:52;14.80;57.70
32706;DHT22;19094;50.972;3.538;2023-04-16T06:41:17;14.80;57.60
32706;DHT22;19094;50.972;3.538;2023-04-16T06:43:43;14.90;57.80
32706;DHT22;19094;50.972;3.538;2023-04-16T06:46:09;14.90;57.50
32706;DHT22;19094;50.972;3.538;2023-04-16T06:48:35;14.90;57.50
32706;DHT22;19094;50.972;3.538;2023-04-16T06:51:01;14.90;57.60
32706;DHT22;19094;50.972;3.538;2023-04-16T06:53:26;14.90;57.60
32706;DHT22;19094;50.972;3.538;2023-04-16T06:55:52;14.90;57.40
32706;DHT22;19094;50.972;3.538;2023-04-16T06:58:18;14.90;57.70
32706;DHT22;19094;50.972;3.538;2023-04-16T07:00:44;14.90;57.60
32706;DHT22;19094;50.972;3.538;2023-04-16T07:03:10;14.90;57.60
32706;DHT22;19094;50.972;3.538;2023-04-16T07:05:36;14.80;57.60
32706;DHT22;19094;50.972;3.538;2023-04-16T07:08:01;14.80;57.70
32706;DHT22;19094;50.972;3.538;2023-04-16T07:10:27;14.80;57.70
32706;DHT22;19094;50.972;3.538;2023-04-16T07:12:53;14.80;57.80
32706;DHT22;19094;50.972;3.538;2023-04-16T07:15:18;14.80;57.80
32706;DHT22;19094;50.972;3.538;2023-04-16T07:17:44;14.80;57.90
32706;DHT22;19094;50.972;3.538;2023-04-16T07:20:10;14.80;57.80
32706;DHT22;19094;50.972;3.538;2023-04-16T07:22:35;14.80;58.00
32706;DHT22;19094;50.972;3.538;2023-04-16T07:25:01;14.70;57.90
32706;DHT22;19094;50.972;3.538;2023-04-16T07:27:27;14.70;58.00
32706;DHT22;19094;50.972;3.538;2023-04-16T07:29:52;14.70;57.80
32706;DHT22;19094;50.972;3.538;2023-04-16T07:32:20;14.80;58.00
32706;DHT22;19094;50.972;3.538;2023-04-16T07:34:46;14.90;57.80
32706;DHT22;19094;50.972;3.538;2023-04-16T07:37:12;14.90;57.70
32706;DHT22;19094;50.972;3.538;2023-04-16T07:39:38;14.90;57.80
32706;DHT22;19094;50.972;3.538;2023-04-16T07:42:03;14.90;57.70
32706;DHT22;19094;50.972;3.538;2023-04-16T07:44:29;14.90;57.50
32706;DHT22;19094;50.972;3.538;2023-04-16T07:46:55;15.00;57.60
32706;DHT22;19094;50.972;3.538;2023-04-16T07:49:20;15.00;57.50
32706;DHT22;19094;50.972;3.538;2023-04-16T07:51:46;15.00;57.50
32706;DHT22;19094;50.972;3.538;2023-04-16T07:54:11;15.00;57.60
32706;DHT22;19094;50.972;3.538;2023-04-16T07:56:37;15.00;57.60
32706;DHT22;19094;50.972;3.538;2023-04-16T07:59:03;15.00;57.30
32706;DHT22;19094;50.972;3.538;2023-04-16T08:01:29;15.00;57.40
32706;DHT22;19094;50.972;3.538;2023-04-16T08:03:55;15.10;57.40
32706;DHT22;19094;50.972;3.538;2023-04-16T08:06:21;15.10;57.30
32706;DHT22;19094;50.972;3.538;2023-04-16T08:08:46;15.10;57.30
32706;DHT22;19094;50.972;3.538;2023-04-16T08:11:12;15.10;57.30
32706;DHT22;19094;50.972;3.538;2023-04-16T08:13:38;15.10;57.40
32706;DHT22;19094;50.972;3.538;2023-04-16T08:16:03;15.10;57.30
32706;DHT22;19094;50.972;3.538;2023-04-16T08:18:29;15.20;58.50
32706;DHT22;19094;50.972;3.538;2023-04-16T08:20:55;15.10;57.80
32706;DHT22;19094;50.972;3.538;2023-04-16T08:23:21;15.10;58.00
32706;DHT22;19094;50.972;3.538;2023-04-16T08:25:46;15.20;56.90
32706;DHT22;19094;50.972;3.538;2023-04-16T08:28:12;15.20;56.60
32706;DHT22;19094;50.972;3.538;2023-04-16T08:30:38;15.20;56.50
32706;DHT22;19094;50.972;3.538;2023-04-16T08:33:04;15.20;56.60
32706;DHT22;19094;50.972;3.538;2023-04-16T08:35:29;15.20;56.50
32706;DHT22;19094;50.972;3.538;2023-04-16T08:37:55;15.30;56.70
32706;DHT22;19094;50.972;3.538;2023-04-16T08:40:27;15.40;56.60
32706;DHT22;19094;50.972;3.538;2023-04-16T08:42:54;15.40;56.40
32706;DHT22;19094;50.972;3.538;2023-04-16T08:45:20;15.40;56.40
32706;DHT22;19094;50.972;3.538;2023-04-16T08:47:48;15.50;56.10
32706;DHT22;19094;50.972;3.538;2023-04-16T08:50:15;15.30;55.80
32706;DHT22;19094;50.972;3.538;2023-04-16T08:53:03;15.50;58.20
32706;DHT22;19094;50.972;3.538;2023-04-16T08:55:35;15.40;58.40
32706;DHT22;19094;50.972;3.538;2023-04-16T08:58:13;15.60;59.10
32706;DHT22;19094;50.972;3.538;2023-04-16T09:00:39;15.80;59.80
32706;DHT22;19094;50.972;3.538;2023-04-16T09:03:06;15.90;59.30
32706;DHT22;19094;50.972;3.538;2023-04-16T09:05:32;15.90;59.70
32706;DHT22;19094;50.972;3.538;2023-04-16T09:07:58;16.00;60.20
32706;DHT22;19094;50.972;3.538;2023-04-16T09:10:25;16.10;60.10
32706;DHT22;19094;50.972;3.538;2023-04-16T09:12:54;16.10;60.00
32706;DHT22;19094;50.972;3.538;2023-04-16T09:15:19;16.00;59.90
32706;DHT22;19094;50.972;3.538;2023-04-16T09:17:45;16.00;60.10
32706;DHT22;19094;50.972;3.538;2023-04-16T09:20:11;16.10;60.10
32706;DHT22;19094;50.972;3.538;2023-04-16T09:22:37;16.10;60.80
32706;DHT22;19094;50.972;3.538;2023-04-16T09:25:05;16.10;60.40
32706;DHT22;19094;50.972;3.538;2023-04-16T09:27:30;16.20;60.40
32706;DHT22;19094;50.972;3.538;2023-04-16T09:29:56;16.20;60.70
32706;DHT22;19094;50.972;3.538;2023-04-16T09:32:26;16.20;61.90
32706;DHT22;19094;50.972;3.538;2023-04-16T09:34:54;16.30;61.50
32706;DHT22;19094;50.972;3.538;2023-04-16T09:37:21;16.40;61.50
32706;DHT22;19094;50.972;3.538;2023-04-16T09:39:59;16.40;60.70
32706;DHT22;19094;50.972;3.538;2023-04-16T09:42:27;16.50;60.60
32706;DHT22;19094;50.972;3.538;2023-04-16T09:44:54;16.50;61.40
32706;DHT22;19094;50.972;3.538;2023-04-16T09:47:21;16.50;60.80
32706;DHT22;19094;50.972;3.538;2023-04-16T09:49:47;16.60;60.80
32706;DHT22;19094;50.972;3.538;2023-04-16T09:52:21;16.60;60.50
32706;DHT22;19094;50.972;3.538;2023-04-16T09:54:51;16.60;60.70
32706;DHT22;19094;50.972;3.538;2023-04-16T09:57:18;16.60;60.50
32706;DHT22;19094;50.972;3.538;2023-04-16T09:59:45;16.70;61.00
32706;DHT22;19094;50.972;3.538;2023-04-16T10:02:11;16.70;60.20
32706;DHT22;19094;50.972;3.538;2023-04-16T10:04:53;16.80;60.40
32706;DHT22;19094;50.972;3.538;2023-04-16T10:07:20;16.80;60.70
32706;DHT22;19094;50.972;3.538;2023-04-16T10:09:47;16.70;60.60
32706;DHT22;19094;50.972;3.538;2023-04-16T10:12:13;16.80;60.40
32706;DHT22;19094;50.972;3.538;2023-04-16T10:14:40;16.70;60.50
32706;DHT22;19094;50.972;3.538;2023-04-16T10:17:07;16.80;61.00
32706;DHT22;19094;50.972;3.538;2023-04-16T10:19:33;16.80;60.80
32706;DHT22;19094;50.972;3.538;2023-04-16T10:22:00;16.90;60.60
32706;DHT22;19094;50.972;3.538;2023-04-16T10:24:27;17.00;60.70
32706;DHT22;19094;50.972;3.538;2023-04-16T10:26:54;17.00;60.60
32706;DHT22;19094;50.972;3.538;2023-04-16T10:29:20;17.00;60.40
32706;DHT22;19094;50.972;3.538;2023-04-16T10:31:47;17.00;60.90
32706;DHT22;19094;50.972;3.538;2023-04-16T10:34:14;17.10;60.90
32706;DHT22;19094;50.972;3.538;2023-04-16T10:36:40;17.10;60.30
32706;DHT22;19094;50.972;3.538;2023-04-16T10:39:11;17.10;59.90
32706;DHT22;19094;50.972;3.538;2023-04-16T10:41:38;17.10;59.30
32706;DHT22;19094;50.972;3.538;2023-04-16T10:44:05;17.30;59.00
32706;DHT22;19094;50.972;3.538;2023-04-16T10:46:41;17.20;57.70
32706;DHT22;19094;50.972;3.538;2023-04-16T10:49:13;17.60;56.10
32706;DHT22;19094;50.972;3.538;2023-04-16T10:51:40;17.80;55.00
32706;DHT22;19094;50.972;3.538;2023-04-16T10:56:37;17.70;55.20
32706;DHT22;19094;50.972;3.538;2023-04-16T10:59:09;17.80;54.40
32706;DHT22;19094;50.972;3.538;2023-04-16T11:01:38;17.80;54.00
32706;DHT22;19094;50.972;3.538;2023-04-16T11:07:05;17.80;55.40
32706;DHT22;19094;50.972;3.538;2023-04-16T11:09:51;17.70;55.10
32706;DHT22;19094;50.972;3.538;2023-04-16T11:12:25;17.70;55.20
32706;DHT22;19094;50.972;3.538;2023-04-16T11:14:54;17.70;55.70
32706;DHT22;19094;50.972;3.538;2023-04-16T11:17:31;17.80;55.00
32706;DHT22;19094;50.972;3.538;2023-04-16T11:19:57;17.80;54.80
32706;DHT22;19094;50.972;3.538;2023-04-16T11:22:23;17.90;54.60
32706;DHT22;19094;50.972;3.538;2023-04-16T11:24:56;17.80;54.70
32706;DHT22;19094;50.972;3.538;2023-04-16T11:27:25;17.70;54.70
32706;DHT22;19094;50.972;3.538;2023-04-16T11:30:05;17.70;55.10
32706;DHT22;19094;50.972;3.538;2023-04-16T11:32:32;17.70;54.90
32706;DHT22;19094;50.972;3.538;2023-04-16T11:35:02;17.60;55.10
32706;DHT22;19094;50.972;3.538;2023-04-16T11:37:36;17.50;55.30
32706;DHT22;19094;50.972;3.538;2023-04-16T11:40:03;17.50;54.90
32706;DHT22;19094;50.972;3.538;2023-04-16T11:42:31;17.60;54.30
32706;DHT22;19094;50.972;3.538;2023-04-16T11:44:58;17.40;55.90
32706;DHT22;19094;50.972;3.538;2023-04-16T11:47:28;17.20;54.80
32706;DHT22;19094;50.972;3.538;2023-04-16T11:49:54;17.40;54.50
32706;DHT22;19094;50.972;3.538;2023-04-16T11:52:28;17.40;54.50
32706;DHT22;19094;50.972;3.538;2023-04-16T11:54:54;17.50;54.50
32706;DHT22;19094;50.972;3.538;2023-04-16T11:57:38;17.60;55.00
32706;DHT22;19094;50.972;3.538;2023-04-16T12:00:04;17.70;54.00
32706;DHT22;19094;50.972;3.538;2023-04-16T12:02:50;17.80;53.70
32706;DHT22;19094;50.972;3.538;2023-04-16T12:07:53;17.90;53.70
32706;DHT22;19094;50.972;3.538;2023-04-16T12:10:19;17.80;53.40
32706;DHT22;19094;50.972;3.538;2023-04-16T12:12:45;17.80;53.90
32706;DHT22;19094;50.972;3.538;2023-04-16T12:15:10;17.70;53.80
32706;DHT22;19094;50.972;3.538;2023-04-16T12:17:37;17.60;55.50
32706;DHT22;19094;50.972;3.538;2023-04-16T12:20:07;17.50;55.50
32706;DHT22;19094;50.972;3.538;2023-04-16T12:22:47;17.50;56.40
32706;DHT22;19094;50.972;3.538;2023-04-16T12:25:15;17.60;56.20
32706;DHT22;19094;50.972;3.538;2023-04-16T12:30:11;17.60;56.10
32706;DHT22;19094;50.972;3.538;2023-04-16T12:32:37;17.70;55.20
32706;DHT22;19094;50.972;3.538;2023-04-16T12:35:03;17.80;54.80
32706;DHT22;19094;50.972;3.538;2023-04-16T12:37:29;17.90;53.90
32706;DHT22;19094;50.972;3.538;2023-04-16T12:39:56;18.00;53.70
32706;DHT22;19094;50.972;3.538;2023-04-16T12:42:21;18.00;54.00
32706;DHT22;19094;50.972;3.538;2023-04-16T12:44:47;18.10;53.10
32706;DHT22;19094;50.972;3.538;2023-04-16T12:47:13;18.10;53.80
32706;DHT22;19094;50.972;3.538;2023-04-16T12:49:38;18.00;54.00
32706;DHT22;19094;50.972;3.538;2023-04-16T12:52:04;18.00;53.70
32706;DHT22;19094;50.972;3.538;2023-04-16T12:54:30;18.00;54.00
32706;DHT22;19094;50.972;3.538;2023-04-16T12:56:56;18.00;54.40
32706;DHT22;19094;50.972;3.538;2023-04-16T12:59:22;18.00;54.00
32706;DHT22;19094;50.972;3.538;2023-04-16T13:01:48;18.00;54.20
32706;DHT22;19094;50.972;3.538;2023-04-16T13:04:14;18.10;54.10
32706;DHT22;19094;50.972;3.538;2023-04-16T13:06:40;18.10;53.80
32706;DHT22;19094;50.972;3.538;2023-04-16T13:09:06;18.10;53.60
32706;DHT22;19094;50.972;3.538;2023-04-16T13:11:31;18.10;53.40
32706;DHT22;19094;50.972;3.538;2023-04-16T13:13:57;18.20;53.20
32706;DHT22;19094;50.972;3.538;2023-04-16T13:16:23;18.30;52.00
32706;DHT22;19094;50.972;3.538;2023-04-16T13:18:49;18.40;51.50
32706;DHT22;19094;50.972;3.538;2023-04-16T13:21:15;18.40;51.70
32706;DHT22;19094;50.972;3.538;2023-04-16T13:23:40;18.40;51.90
32706;DHT22;19094;50.972;3.538;2023-04-16T13:26:06;18.40;52.00
32706;DHT22;19094;50.972;3.538;2023-04-16T13:28:31;18.30;51.40
32706;DHT22;19094;50.972;3.538;2023-04-16T13:30:57;18.30;52.20
32706;DHT22;19094;50.972;3.538;2023-04-16T13:33:23;18.30;51.90
32706;DHT22;19094;50.972;3.538;2023-04-16T13:35:49;18.20;51.70
32706;DHT22;19094;50.972;3.538;2023-04-16T13:38:16;18.20;51.90
32706;DHT22;19094;50.972;3.538;2023-04-16T13:40:41;18.20;52.10
32706;DHT22;19094;50.972;3.538;2023-04-16T13:43:07;18.30;51.50
32706;DHT22;19094;50.972;3.538;2023-04-16T13:45:33;18.30;51.30
32706;DHT22;19094;50.972;3.538;2023-04-16T13:47:58;18.30;51.50
32706;DHT22;19094;50.972;3.538;2023-04-16T13:50:24;18.30;51.70
32706;DHT22;19094;50.972;3.538;2023-04-16T13:52:50;18.40;51.60
32706;DHT22;19094;50.972;3.538;2023-04-16T13:55:16;18.40;51.30
32706;DHT22;19094;50.972;3.538;2023-04-16T13:57:45;18.50;51.20
32706;DHT22;19094;50.972;3.538;2023-04-16T14:00:15;18.50;50.90
32706;DHT22;19094;50.972;3.538;2023-04-16T14:02:41;18.50;51.20
32706;DHT22;19094;50.972;3.538;2023-04-16T14:05:07;18.40;51.50
32706;DHT22;19094;50.972;3.538;2023-04-16T14:07:33;18.50;51.70
32706;DHT22;19094;50.972;3.538;2023-04-16T14:09:59;18.70;51.30
32706;DHT22;19094;50.972;3.538;2023-04-16T14:12:25;18.80;51.20
32706;DHT22;19094;50.972;3.538;2023-04-16T14:14:51;19.00;50.80
32706;DHT22;19094;50.972;3.538;2023-04-16T14:17:16;19.20;50.40
32706;DHT22;19094;50.972;3.538;2023-04-16T14:19:42;19.40;50.30
32706;DHT22;19094;50.972;3.538;2023-04-16T14:22:08;19.70;50.30
32706;DHT22;19094;50.972;3.538;2023-04-16T14:24:33;19.90;50.00
32706;DHT22;19094;50.972;3.538;2023-04-16T14:26:59;20.30;49.10
32706;DHT22;19094;50.972;3.538;2023-04-16T14:29:25;20.60;48.50
32706;DHT22;19094;50.972;3.538;2023-04-16T14:31:50;21.00;47.20
32706;DHT22;19094;50.972;3.538;2023-04-16T14:34:16;21.30;45.90
32706;DHT22;19094;50.972;3.538;2023-04-16T14:36:42;21.60;44.70
32706;DHT22;19094;50.972;3.538;2023-04-16T14:39:08;21.90;43.90
32706;DHT22;19094;50.972;3.538;2023-04-16T14:41:35;22.30;44.00
32706;DHT22;19094;50.972;3.538;2023-04-16T14:44:01;22.50;43.70
32706;DHT22;19094;50.972;3.538;2023-04-16T14:46:28;22.80;42.60
32706;DHT22;19094;50.972;3.538;2023-04-16T14:48:54;23.10;42.10
32706;DHT22;19094;50.972;3.538;2023-04-16T14:51:20;23.30;41.60
32706;DHT22;19094;50.972;3.538;2023-04-16T14:53:46;23.50;41.00
32706;DHT22;19094;50.972;3.538;2023-04-16T14:56:12;23.70;40.70
32706;DHT22;19094;50.972;3.538;2023-04-16T14:58:38;23.90;39.80
32706;DHT22;19094;50.972;3.538;2023-04-16T15:01:03;23.90;41.30
32706;DHT22;19094;50.972;3.538;2023-04-16T15:03:30;23.90;41.50
32706;DHT22;19094;50.972;3.538;2023-04-16T15:05:56;23.80;40.30
32706;DHT22;19094;50.972;3.538;2023-04-16T15:08:23;23.80;40.70
32706;DHT22;19094;50.972;3.538;2023-04-16T15:10:49;23.80;41.20
32706;DHT22;19094;50.972;3.538;2023-04-16T15:13:15;23.70;41.80
32706;DHT22;19094;50.972;3.538;2023-04-16T15:15:40;23.60;40.70
32706;DHT22;19094;50.972;3.538;2023-04-16T15:18:06;23.60;41.00
32706;DHT22;19094;50.972;3.538;2023-04-16T15:20:32;23.70;40.90
32706;DHT22;19094;50.972;3.538;2023-04-16T15:22:57;23.70;41.00
32706;DHT22;19094;50.972;3.538;2023-04-16T15:25:23;23.70;40.60
32706;DHT22;19094;50.972;3.538;2023-04-16T15:27:50;23.80;40.50
32706;DHT22;19094;50.972;3.538;2023-04-16T15:30:16;23.90;40.20
32706;DHT22;19094;50.972;3.538;2023-04-16T15:32:43;23.90;40.40
32706;DHT22;19094;50.972;3.538;2023-04-16T15:35:09;23.90;39.90
32706;DHT22;19094;50.972;3.538;2023-04-16T15:37:34;23.90;40.40